Enid, Oklahoma
Current Conditions -  °F | °C
As of 4:50 PM on Thursday 23 Oct 2014 (Local Time) from KWDG Reporting Station
Broken Clouds Broken Clouds  
Wind Chill: 77°   Ceiling: 13000
Heat Index: 79°   Visibility: 10mi
Dew Point: 63°   Wind: 12mph
Humidity: 61%   Direction: 150°SSE
Pressure: 30.02"   Gusts: NA
Location:  36.4°N, 97.88°W
Report Text: KWDG 232150Z 15010KT 10SM BKN130 25/17 A3002
Loading
Personal Weather Stations






























Interactive Weather Map
Tropical Storm Tracking
New forecast layout! Learn more

10-Day Weather Forecast

Advertisements
Track Severe Weather on mobile